sensor_id;sensor_type;location;lat;lon;timestamp;temperature;humidity
55016;DHT22;40919;43.236;21.590;2022-09-09T00:00:47;538.40;2406.40
55016;DHT22;40919;43.236;21.590;2022-09-09T00:03:23;538.40;2406.40
55016;DHT22;40919;43.236;21.590;2022-09-09T00:06:43;538.40;2406.40
55016;DHT22;40919;43.236;21.590;2022-09-09T00:09:16;538.20;2406.40
55016;DHT22;40919;43.236;21.590;2022-09-09T00:12:02;538.40;2406.40
55016;DHT22;40919;43.236;21.590;2022-09-09T00:14:56;538.50;2406.40
55016;DHT22;40919;43.236;21.590;2022-09-09T00:25:51;538.30;2406.40
55016;DHT22;40919;43.236;21.590;2022-09-09T00:28:27;538.00;2406.40
55016;DHT22;40919;43.236;21.590;2022-09-09T00:30:56;538.00;2406.40
55016;DHT22;40919;43.236;21.590;2022-09-09T00:33:26;537.90;2406.40
55016;DHT22;40919;43.236;21.590;2022-09-09T00:35:57;537.80;2406.40
55016;DHT22;40919;43.236;21.590;2022-09-09T00:38:49;537.60;2406.40
55016;DHT22;40919;43.236;21.590;2022-09-09T00:41:24;512.90;2380.80
55016;DHT22;40919;43.236;21.590;2022-09-09T00:44:25;537.80;2406.40
55016;DHT22;40919;43.236;21.590;2022-09-09T00:49:45;537.80;2406.40
55016;DHT22;40919;43.236;21.590;2022-09-09T00:52:20;537.60;2406.40
55016;DHT22;40919;43.236;21.590;2022-09-09T00:55:14;537.80;2406.40
55016;DHT22;40919;43.236;21.590;2022-09-09T00:57:42;537.80;2406.40
55016;DHT22;40919;43.236;21.590;2022-09-09T01:11:00;537.70;2406.40
55016;DHT22;40919;43.236;21.590;2022-09-09T01:13:33;537.80;2406.40
55016;DHT22;40919;43.236;21.590;2022-09-09T01:16:01;537.60;2406.40
55016;DHT22;40919;43.236;21.590;2022-09-09T01:18:51;537.80;2406.40
55016;DHT22;40919;43.236;21.590;2022-09-09T01:24:26;512.90;2380.80
55016;DHT22;40919;43.236;21.590;2022-09-09T01:26:58;537.60;2406.40
55016;DHT22;40919;43.236;21.590;2022-09-09T01:29:26;512.80;2380.80
55016;DHT22;40919;43.236;21.590;2022-09-09T01:32:00;512.60;2380.80
55016;DHT22;40919;43.236;21.590;2022-09-09T01:34:38;512.70;2380.80
55016;DHT22;40919;43.236;21.590;2022-09-09T01:37:07;512.80;2380.80
55016;DHT22;40919;43.236;21.590;2022-09-09T01:39:36;512.60;2380.80
55016;DHT22;40919;43.236;21.590;2022-09-09T01:42:04;512.60;2380.80
55016;DHT22;40919;43.236;21.590;2022-09-09T01:44:31;512.80;2380.80
55016;DHT22;40919;43.236;21.590;2022-09-09T01:46:57;512.90;2380.80
55016;DHT22;40919;43.236;21.590;2022-09-09T01:49:23;512.90;2380.80
55016;DHT22;40919;43.236;21.590;2022-09-09T01:51:54;512.90;2380.80
55016;DHT22;40919;43.236;21.590;2022-09-09T01:54:22;537.60;2406.40
55016;DHT22;40919;43.236;21.590;2022-09-09T02:02:10;512.90;2380.80
55016;DHT22;40919;43.236;21.590;2022-09-09T02:04:48;512.90;2380.80
55016;DHT22;40919;43.236;21.590;2022-09-09T02:10:20;512.90;2380.80
55016;DHT22;40919;43.236;21.590;2022-09-09T02:12:55;512.90;2380.80
55016;DHT22;40919;43.236;21.590;2022-09-09T02:15:26;512.90;2380.80
55016;DHT22;40919;43.236;21.590;2022-09-09T02:17:57;512.80;2380.80
55016;DHT22;40919;43.236;21.590;2022-09-09T02:20:25;512.50;2380.80
55016;DHT22;40919;43.236;21.590;2022-09-09T02:22:53;512.40;2380.80
55016;DHT22;40919;43.236;21.590;2022-09-09T02:25:22;512.60;2380.80
55016;DHT22;40919;43.236;21.590;2022-09-09T02:27:50;512.50;2380.80
55016;DHT22;40919;43.236;21.590;2022-09-09T02:30:19;512.50;2380.80
55016;DHT22;40919;43.236;21.590;2022-09-09T02:32:47;512.50;2380.80
55016;DHT22;40919;43.236;21.590;2022-09-09T02:35:19;512.60;2380.80
55016;DHT22;40919;43.236;21.590;2022-09-09T02:37:46;512.60;2380.80
55016;DHT22;40919;43.236;21.590;2022-09-09T02:40:13;512.60;2380.80
55016;DHT22;40919;43.236;21.590;2022-09-09T02:42:43;512.50;2380.80
55016;DHT22;40919;43.236;21.590;2022-09-09T02:45:11;512.50;2380.80
55016;DHT22;40919;43.236;21.590;2022-09-09T02:47:44;512.50;2380.80
55016;DHT22;40919;43.236;21.590;2022-09-09T02:50:27;512.60;2380.80
55016;DHT22;40919;43.236;21.590;2022-09-09T02:53:19;512.60;2380.80
55016;DHT22;40919;43.236;21.590;2022-09-09T02:56:05;512.60;2380.80
55016;DHT22;40919;43.236;21.590;2022-09-09T02:58:35;512.60;2380.80
55016;DHT22;40919;43.236;21.590;2022-09-09T03:01:01;512.70;2380.80
55016;DHT22;40919;43.236;21.590;2022-09-09T03:03:28;512.40;2380.80
55016;DHT22;40919;43.236;21.590;2022-09-09T03:05:54;512.40;2380.80
55016;DHT22;40919;43.236;21.590;2022-09-09T03:08:20;512.50;2380.80
55016;DHT22;40919;43.236;21.590;2022-09-09T03:10:46;512.40;2380.80
55016;DHT22;40919;43.236;21.590;2022-09-09T03:13:12;512.30;2380.80
55016;DHT22;40919;43.236;21.590;2022-09-09T03:15:40;512.40;2380.80
55016;DHT22;40919;43.236;21.590;2022-09-09T03:18:07;512.50;2380.80
55016;DHT22;40919;43.236;21.590;2022-09-09T03:20:32;512.60;2380.80
55016;DHT22;40919;43.236;21.590;2022-09-09T03:23:00;512.80;2380.80
55016;DHT22;40919;43.236;21.590;2022-09-09T03:25:26;512.80;2380.80
55016;DHT22;40919;43.236;21.590;2022-09-09T03:27:53;512.60;2380.80
55016;DHT22;40919;43.236;21.590;2022-09-09T03:30:27;512.60;2380.80
55016;DHT22;40919;43.236;21.590;2022-09-09T03:32:53;512.80;2380.80
55016;DHT22;40919;43.236;21.590;2022-09-09T03:35:20;512.60;2380.80
55016;DHT22;40919;43.236;21.590;2022-09-09T03:37:46;537.70;2406.40
55016;DHT22;40919;43.236;21.590;2022-09-09T03:40:13;512.50;2380.80
55016;DHT22;40919;43.236;21.590;2022-09-09T03:42:39;512.20;2380.80
55016;DHT22;40919;43.236;21.590;2022-09-09T03:45:08;512.20;2380.80
55016;DHT22;40919;43.236;21.590;2022-09-09T03:47:35;512.20;2380.80
55016;DHT22;40919;43.236;21.590;2022-09-09T03:50:00;512.30;2380.80
55016;DHT22;40919;43.236;21.590;2022-09-09T03:52:26;512.50;2380.80
55016;DHT22;40919;43.236;21.590;2022-09-09T03:54:53;512.20;2380.80
55016;DHT22;40919;43.236;21.590;2022-09-09T03:57:19;512.30;2380.80
55016;DHT22;40919;43.236;21.590;2022-09-09T03:59:45;512.30;2380.80
55016;DHT22;40919;43.236;21.590;2022-09-09T04:02:11;512.20;2380.80
55016;DHT22;40919;43.236;21.590;2022-09-09T04:07:03;487.10;2380.80
55016;DHT22;40919;43.236;21.590;2022-09-09T04:09:31;487.30;2380.80
55016;DHT22;40919;43.236;21.590;2022-09-09T04:11:57;487.30;2380.80
55016;DHT22;40919;43.236;21.590;2022-09-09T04:14:23;512.10;2380.80
55016;DHT22;40919;43.236;21.590;2022-09-09T04:16:48;512.20;2380.80
55016;DHT22;40919;43.236;21.590;2022-09-09T04:19:14;487.30;2380.80
55016;DHT22;40919;43.236;21.590;2022-09-09T04:21:41;512.20;2380.80
55016;DHT22;40919;43.236;21.590;2022-09-09T04:24:08;512.20;2380.80
55016;DHT22;40919;43.236;21.590;2022-09-09T04:26:34;537.80;2406.40
55016;DHT22;40919;43.236;21.590;2022-09-09T04:29:02;512.50;2380.80
55016;DHT22;40919;43.236;21.590;2022-09-09T04:31:28;512.30;2380.80
55016;DHT22;40919;43.236;21.590;2022-09-09T04:33:54;487.30;2380.80
55016;DHT22;40919;43.236;21.590;2022-09-09T04:36:20;512.20;2380.80
55016;DHT22;40919;43.236;21.590;2022-09-09T04:38:47;512.60;2380.80
55016;DHT22;40919;43.236;21.590;2022-09-09T04:41:14;512.40;2380.80
55016;DHT22;40919;43.236;21.590;2022-09-09T04:43:42;512.30;2380.80
55016;DHT22;40919;43.236;21.590;2022-09-09T04:46:08;512.40;2380.80
55016;DHT22;40919;43.236;21.590;2022-09-09T04:48:34;512.30;2380.80
55016;DHT22;40919;43.236;21.590;2022-09-09T04:51:02;512.30;2380.80
55016;DHT22;40919;43.236;21.590;2022-09-09T04:53:29;512.20;2380.80
55016;DHT22;40919;43.236;21.590;2022-09-09T04:56:12;512.20;2380.80
55016;DHT22;40919;43.236;21.590;2022-09-09T04:58:39;512.40;2380.80
55016;DHT22;40919;43.236;21.590;2022-09-09T05:01:10;512.40;2380.80
55016;DHT22;40919;43.236;21.590;2022-09-09T05:03:37;512.60;2380.80
55016;DHT22;40919;43.236;21.590;2022-09-09T05:06:08;512.40;2380.80
55016;DHT22;40919;43.236;21.590;2022-09-09T05:08:37;512.30;2380.80
55016;DHT22;40919;43.236;21.590;2022-09-09T05:11:04;512.30;2380.80
55016;DHT22;40919;43.236;21.590;2022-09-09T05:13:37;512.40;2380.80
55016;DHT22;40919;43.236;21.590;2022-09-09T05:16:02;512.40;2380.80
55016;DHT22;40919;43.236;21.590;2022-09-09T05:18:28;512.50;2380.80
55016;DHT22;40919;43.236;21.590;2022-09-09T05:20:59;512.50;2380.80
55016;DHT22;40919;43.236;21.590;2022-09-09T05:23:25;512.60;2380.80
55016;DHT22;40919;43.236;21.590;2022-09-09T05:25:58;512.50;2380.80
55016;DHT22;40919;43.236;21.590;2022-09-09T05:28:25;512.30;2380.80
55016;DHT22;40919;43.236;21.590;2022-09-09T05:30:58;512.70;2380.80
55016;DHT22;40919;43.236;21.590;2022-09-09T05:33:25;512.80;2380.80
55016;DHT22;40919;43.236;21.590;2022-09-09T05:36:12;512.90;2380.80
55016;DHT22;40919;43.236;21.590;2022-09-09T05:38:39;512.90;2380.80
55016;DHT22;40919;43.236;21.590;2022-09-09T05:41:06;538.00;2406.40
55016;DHT22;40919;43.236;21.590;2022-09-09T05:43:32;537.60;2406.40
55016;DHT22;40919;43.236;21.590;2022-09-09T05:48:30;512.90;2380.80
55016;DHT22;40919;43.236;21.590;2022-09-09T05:50:57;512.90;2380.80
55016;DHT22;40919;43.236;21.590;2022-09-09T05:53:23;537.60;2406.40
55016;DHT22;40919;43.236;21.590;2022-09-09T05:55:49;512.90;2380.80
55016;DHT22;40919;43.236;21.590;2022-09-09T05:58:15;537.70;2406.40
55016;DHT22;40919;43.236;21.590;2022-09-09T06:00:42;512.90;2380.80
55016;DHT22;40919;43.236;21.590;2022-09-09T06:03:12;512.80;2380.80
55016;DHT22;40919;43.236;21.590;2022-09-09T06:05:38;512.80;2380.80
55016;DHT22;40919;43.236;21.590;2022-09-09T06:08:04;512.60;2380.80
55016;DHT22;40919;43.236;21.590;2022-09-09T06:10:29;512.80;2380.80
55016;DHT22;40919;43.236;21.590;2022-09-09T06:12:55;512.90;2380.80
55016;DHT22;40919;43.236;21.590;2022-09-09T06:15:21;512.90;2380.80
55016;DHT22;40919;43.236;21.590;2022-09-09T06:17:47;512.90;2380.80
55016;DHT22;40919;43.236;21.590;2022-09-09T06:20:13;512.90;2380.80
55016;DHT22;40919;43.236;21.590;2022-09-09T06:22:40;512.90;2380.80
55016;DHT22;40919;43.236;21.590;2022-09-09T06:25:08;512.80;2380.80
55016;DHT22;40919;43.236;21.590;2022-09-09T06:27:34;512.90;2380.80
55016;DHT22;40919;43.236;21.590;2022-09-09T06:29:59;537.60;2406.40
55016;DHT22;40919;43.236;21.590;2022-09-09T06:32:25;512.90;2380.80
55016;DHT22;40919;43.236;21.590;2022-09-09T06:34:52;512.90;2380.80
55016;DHT22;40919;43.236;21.590;2022-09-09T06:37:18;537.60;2406.40
55016;DHT22;40919;43.236;21.590;2022-09-09T06:39:44;512.90;2380.80
55016;DHT22;40919;43.236;21.590;2022-09-09T06:42:10;512.90;2380.80
55016;DHT22;40919;43.236;21.590;2022-09-09T06:44:35;512.90;2380.80
55016;DHT22;40919;43.236;21.590;2022-09-09T06:47:02;512.90;2380.80
55016;DHT22;40919;43.236;21.590;2022-09-09T06:49:28;538.20;2406.40
55016;DHT22;40919;43.236;21.590;2022-09-09T06:51:53;537.70;2406.40
55016;DHT22;40919;43.236;21.590;2022-09-09T06:54:20;537.80;2406.40
55016;DHT22;40919;43.236;21.590;2022-09-09T06:56:47;537.80;2406.40
55016;DHT22;40919;43.236;21.590;2022-09-09T06:59:15;537.80;2406.40
55016;DHT22;40919;43.236;21.590;2022-09-09T07:01:42;537.90;2406.40
55016;DHT22;40919;43.236;21.590;2022-09-09T07:04:12;537.90;2406.40
55016;DHT22;40919;43.236;21.590;2022-09-09T07:06:43;537.90;2406.40
55016;DHT22;40919;43.236;21.590;2022-09-09T07:09:12;537.80;2406.40
55016;DHT22;40919;43.236;21.590;2022-09-09T07:11:43;537.80;2406.40
55016;DHT22;40919;43.236;21.590;2022-09-09T07:14:11;537.70;2406.40
55016;DHT22;40919;43.236;21.590;2022-09-09T07:16:41;537.70;2406.40
55016;DHT22;40919;43.236;21.590;2022-09-09T07:19:07;512.90;2380.80
55016;DHT22;40919;43.236;21.590;2022-09-09T07:21:33;512.80;2380.80
55016;DHT22;40919;43.236;21.590;2022-09-09T07:24:00;512.70;2380.80
55016;DHT22;40919;43.236;21.590;2022-09-09T07:26:28;512.80;2380.80
55016;DHT22;40919;43.236;21.590;2022-09-09T07:28:54;512.60;2380.80
55016;DHT22;40919;43.236;21.590;2022-09-09T07:31:27;512.70;2380.80
55016;DHT22;40919;43.236;21.590;2022-09-09T07:33:53;512.80;2380.80
55016;DHT22;40919;43.236;21.590;2022-09-09T07:36:22;512.90;2380.80
55016;DHT22;40919;43.236;21.590;2022-09-09T07:38:53;512.90;2380.80
55016;DHT22;40919;43.236;21.590;2022-09-09T07:41:27;537.60;2406.40
55016;DHT22;40919;43.236;21.590;2022-09-09T07:43:54;512.90;2380.80
55016;DHT22;40919;43.236;21.590;2022-09-09T07:46:24;512.90;2380.80
55016;DHT22;40919;43.236;21.590;2022-09-09T07:48:53;512.80;2380.80
55016;DHT22;40919;43.236;21.590;2022-09-09T07:51:23;512.80;2380.80
55016;DHT22;40919;43.236;21.590;2022-09-09T07:54:00;512.90;2380.80
55016;DHT22;40919;43.236;21.590;2022-09-09T07:56:28;537.60;2406.40
55016;DHT22;40919;43.236;21.590;2022-09-09T07:58:56;537.70;2406.40
55016;DHT22;40919;43.236;21.590;2022-09-09T08:01:28;537.80;2406.40
55016;DHT22;40919;43.236;21.590;2022-09-09T08:04:05;537.80;2406.40
55016;DHT22;40919;43.236;21.590;2022-09-09T08:06:35;537.80;2406.40
55016;DHT22;40919;43.236;21.590;2022-09-09T08:09:01;537.70;2406.40
55016;DHT22;40919;43.236;21.590;2022-09-09T08:11:28;537.70;2406.40
55016;DHT22;40919;43.236;21.590;2022-09-09T08:13:55;537.80;2406.40
55016;DHT22;40919;43.236;21.590;2022-09-09T08:16:26;512.90;2380.80
55016;DHT22;40919;43.236;21.590;2022-09-09T08:18:53;537.80;2406.40
55016;DHT22;40919;43.236;21.590;2022-09-09T08:21:28;537.90;2406.40
55016;DHT22;40919;43.236;21.590;2022-09-09T08:23:56;538.00;2406.40
55016;DHT22;40919;43.236;21.590;2022-09-09T08:26:24;538.00;2406.40
55016;DHT22;40919;43.236;21.590;2022-09-09T08:31:20;538.10;2406.40
55016;DHT22;40919;43.236;21.590;2022-09-09T08:33:46;538.00;2406.40
55016;DHT22;40919;43.236;21.590;2022-09-09T08:36:18;537.90;2406.40
55016;DHT22;40919;43.236;21.590;2022-09-09T08:38:48;538.10;2406.40
55016;DHT22;40919;43.236;21.590;2022-09-09T08:44:11;538.10;2406.40
55016;DHT22;40919;43.236;21.590;2022-09-09T08:49:54;538.20;2406.40
55016;DHT22;40919;43.236;21.590;2022-09-09T08:52:31;538.20;2406.40
55016;DHT22;40919;43.236;21.590;2022-09-09T08:55:27;538.20;2406.40
55016;DHT22;40919;43.236;21.590;2022-09-09T08:57:56;538.00;2150.40
55016;DHT22;40919;43.236;21.590;2022-09-09T09:00:23;538.10;2406.40
55016;DHT22;40919;43.236;21.590;2022-09-09T09:08:31;538.10;2406.40
55016;DHT22;40919;43.236;21.590;2022-09-09T09:10:59;537.90;2406.40
55016;DHT22;40919;43.236;21.590;2022-09-09T09:13:34;537.80;2406.40
55016;DHT22;40919;43.236;21.590;2022-09-09T09:18:58;537.80;2406.40
55016;DHT22;40919;43.236;21.590;2022-09-09T09:21:36;537.90;2406.40
55016;DHT22;40919;43.236;21.590;2022-09-09T09:24:12;538.10;2406.40
55016;DHT22;40919;43.236;21.590;2022-09-09T09:26:42;538.10;2406.40
55016;DHT22;40919;43.236;21.590;2022-09-09T09:29:14;538.10;2406.40
55016;DHT22;40919;43.236;21.590;2022-09-09T09:31:48;538.10;2406.40
55016;DHT22;40919;43.236;21.590;2022-09-09T09:34:16;538.10;2406.40
55016;DHT22;40919;43.236;21.590;2022-09-09T09:36:53;538.30;2406.40
55016;DHT22;40919;43.236;21.590;2022-09-09T09:41:49;538.50;2406.40
55016;DHT22;40919;43.236;21.590;2022-09-09T09:44:26;563.30;2432.00
55016;DHT22;40919;43.236;21.590;2022-09-09T09:46:52;563.50;2432.00
55016;DHT22;40919;43.236;21.590;2022-09-09T09:49:18;563.60;2432.00
55016;DHT22;40919;43.236;21.590;2022-09-09T09:51:44;563.80;2432.00
55016;DHT22;40919;43.236;21.590;2022-09-09T09:54:22;564.00;2432.00
55016;DHT22;40919;43.236;21.590;2022-09-09T09:56:53;564.10;2432.00
55016;DHT22;40919;43.236;21.590;2022-09-09T09:59:35;588.80;2432.00
55016;DHT22;40919;43.236;21.590;2022-09-09T10:02:23;589.00;2432.00
55016;DHT22;40919;43.236;21.590;2022-09-09T10:05:04;589.10;2432.00
55016;DHT22;40919;43.236;21.590;2022-09-09T10:07:31;589.20;2432.00
55016;DHT22;40919;43.236;21.590;2022-09-09T10:09:58;589.20;2432.00
55016;DHT22;40919;43.236;21.590;2022-09-09T10:12:37;589.20;2432.00
55016;DHT22;40919;43.236;21.590;2022-09-09T10:18:14;589.30;2432.00
55016;DHT22;40919;43.236;21.590;2022-09-09T10:40:19;614.80;2432.00
55016;DHT22;40919;43.236;21.590;2022-09-09T10:42:46;614.80;2432.00
55016;DHT22;40919;43.236;21.590;2022-09-09T10:45:23;614.80;2432.00
55016;DHT22;40919;43.236;21.590;2022-09-09T10:56:07;640.00;2432.00
55016;DHT22;40919;43.236;21.590;2022-09-09T10:58:36;640.20;2432.00
55016;DHT22;40919;43.236;21.590;2022-09-09T11:01:32;640.30;2432.00
55016;DHT22;40919;43.236;21.590;2022-09-09T11:04:23;640.40;2432.00
55016;DHT22;40919;43.236;21.590;2022-09-09T11:06:55;640.00;2432.00
55016;DHT22;40919;43.236;21.590;2022-09-09T11:09:28;640.40;2432.00
55016;DHT22;40919;43.236;21.590;2022-09-09T11:11:58;640.50;2432.00
55016;DHT22;40919;43.236;21.590;2022-09-09T11:17:09;640.50;2432.00
55016;DHT22;40919;43.236;21.590;2022-09-09T11:19:39;640.50;2432.00
55016;DHT22;40919;43.236;21.590;2022-09-09T11:22:29;640.60;2432.00
55016;DHT22;40919;43.236;21.590;2022-09-09T11:24:59;640.70;2432.00
55016;DHT22;40919;43.236;21.590;2022-09-09T11:27:31;640.90;2432.00
55016;DHT22;40919;43.236;21.590;2022-09-09T11:40:41;691.30;2432.00
55016;DHT22;40919;43.236;21.590;2022-09-09T11:43:17;691.80;2432.00
55016;DHT22;40919;43.236;21.590;2022-09-09T11:45:55;691.90;2432.00
55016;DHT22;40919;43.236;21.590;2022-09-09T11:48:32;716.80;2432.00
55016;DHT22;40919;43.236;21.590;2022-09-09T11:51:07;717.00;2432.00
55016;DHT22;40919;43.236;21.590;2022-09-09T11:53:35;717.20;2432.00
55016;DHT22;40919;43.236;21.590;2022-09-09T11:56:10;717.40;2432.00
55016;DHT22;40919;43.236;21.590;2022-09-09T11:58:44;717.70;2432.00
55016;DHT22;40919;43.236;21.590;2022-09-09T12:06:45;742.80;2432.00
55016;DHT22;40919;43.236;21.590;2022-09-09T12:11:49;768.10;2432.00
55016;DHT22;40919;43.236;21.590;2022-09-09T12:14:37;768.10;2432.00
55016;DHT22;40919;43.236;21.590;2022-09-09T12:17:17;768.40;2432.00
55016;DHT22;40919;43.236;21.590;2022-09-09T12:19:44;768.70;2432.00
55016;DHT22;40919;43.236;21.590;2022-09-09T12:22:33;768.90;2406.40
55016;DHT22;40919;43.236;21.590;2022-09-09T12:30:34;768.90;2329.60
55016;DHT22;40919;43.236;21.590;2022-09-09T12:33:10;793.70;2329.60
55016;DHT22;40919;43.236;21.590;2022-09-09T12:35:37;768.60;2329.60
55016;DHT22;40919;43.236;21.590;2022-09-09T12:38:05;768.70;2304.00
55016;DHT22;40919;43.236;21.590;2022-09-09T12:40:37;793.70;2304.00
55016;DHT22;40919;43.236;21.590;2022-09-09T12:43:21;793.70;2329.60
55016;DHT22;40919;43.236;21.590;2022-09-09T12:45:49;794.00;2329.60
55016;DHT22;40919;43.236;21.590;2022-09-09T12:48:28;768.90;2355.20
55016;DHT22;40919;43.236;21.590;2022-09-09T12:50:55;793.70;2329.60
55016;DHT22;40919;43.236;21.590;2022-09-09T12:53:34;793.70;2304.00
55016;DHT22;40919;43.236;21.590;2022-09-09T12:56:07;793.70;2227.20
55016;DHT22;40919;43.236;21.590;2022-09-09T12:58:35;793.80;2227.20
55016;DHT22;40919;43.236;21.590;2022-09-09T13:01:02;794.00;2227.20
55016;DHT22;40919;43.236;21.590;2022-09-09T13:03:32;794.10;2201.60
55016;DHT22;40919;43.236;21.590;2022-09-09T13:06:09;794.40;2176.00
55016;DHT22;40919;43.236;21.590;2022-09-09T13:08:36;794.40;2176.00
55016;DHT22;40919;43.236;21.590;2022-09-09T13:11:07;794.40;2150.40
55016;DHT22;40919;43.236;21.590;2022-09-09T13:13:37;794.20;2124.80
55016;DHT22;40919;43.236;21.590;2022-09-09T13:16:05;794.00;2099.20
55016;DHT22;40919;43.236;21.590;2022-09-09T13:18:35;794.20;2099.20
55016;DHT22;40919;43.236;21.590;2022-09-09T13:21:02;794.20;2124.80
55016;DHT22;40919;43.236;21.590;2022-09-09T13:23:33;794.40;2124.80
55016;DHT22;40919;43.236;21.590;2022-09-09T13:26:21;794.10;2099.20
55016;DHT22;40919;43.236;21.590;2022-09-09T13:28:48;794.00;2150.40
55016;DHT22;40919;43.236;21.590;2022-09-09T13:33:48;793.90;2150.40
55016;DHT22;40919;43.236;21.590;2022-09-09T13:36:14;768.90;2124.80
55016;DHT22;40919;43.236;21.590;2022-09-09T13:41:27;793.60;2176.00
55016;DHT22;40919;43.236;21.590;2022-09-09T13:43:54;768.40;2176.00
55016;DHT22;40919;43.236;21.590;2022-09-09T13:46:34;743.00;2201.60
55016;DHT22;40919;43.236;21.590;2022-09-09T13:49:24;742.60;2278.40
55016;DHT22;40919;43.236;21.590;2022-09-09T13:51:50;742.80;2278.40
55016;DHT22;40919;43.236;21.590;2022-09-09T13:54:19;742.80;2252.80
55016;DHT22;40919;43.236;21.590;2022-09-09T13:56:46;742.80;2227.20
55016;DHT22;40919;43.236;21.590;2022-09-09T13:59:14;742.80;2252.80
55016;DHT22;40919;43.236;21.590;2022-09-09T14:01:41;743.10;2201.60
55016;DHT22;40919;43.236;21.590;2022-09-09T14:04:08;768.10;2201.60
55016;DHT22;40919;43.236;21.590;2022-09-09T14:06:35;768.30;2150.40
55016;DHT22;40919;43.236;21.590;2022-09-09T14:09:11;793.60;2150.40
55016;DHT22;40919;43.236;21.590;2022-09-09T14:11:37;768.70;2150.40
55016;DHT22;40919;43.236;21.590;2022-09-09T14:14:03;768.30;2176.00
55016;DHT22;40919;43.236;21.590;2022-09-09T14:16:29;743.10;2227.20
55016;DHT22;40919;43.236;21.590;2022-09-09T14:18:55;742.90;2176.00
55016;DHT22;40919;43.236;21.590;2022-09-09T14:21:25;743.10;2150.40
55016;DHT22;40919;43.236;21.590;2022-09-09T14:23:52;768.30;2176.00
55016;DHT22;40919;43.236;21.590;2022-09-09T14:26:21;768.40;2099.20
55016;DHT22;40919;43.236;21.590;2022-09-09T14:28:48;743.30;2124.80
55016;DHT22;40919;43.236;21.590;2022-09-09T14:31:14;743.00;2176.00
55016;DHT22;40919;43.236;21.590;2022-09-09T14:33:40;742.70;2201.60
55016;DHT22;40919;43.236;21.590;2022-09-09T14:36:06;742.40;2227.20
55016;DHT22;40919;43.236;21.590;2022-09-09T14:38:37;717.60;2227.20
55016;DHT22;40919;43.236;21.590;2022-09-09T14:41:09;717.70;2201.60
55016;DHT22;40919;43.236;21.590;2022-09-09T14:43:37;717.70;2201.60
55016;DHT22;40919;43.236;21.590;2022-09-09T14:46:11;742.50;2201.60
55016;DHT22;40919;43.236;21.590;2022-09-09T14:48:38;742.80;2201.60
55016;DHT22;40919;43.236;21.590;2022-09-09T14:51:28;742.50;2201.60
55016;DHT22;40919;43.236;21.590;2022-09-09T14:53:55;742.60;2201.60
55016;DHT22;40919;43.236;21.590;2022-09-09T14:56:25;742.40;2201.60
55016;DHT22;40919;43.236;21.590;2022-09-09T14:58:53;717.40;2201.60
55016;DHT22;40919;43.236;21.590;2022-09-09T15:01:21;717.30;2227.20
55016;DHT22;40919;43.236;21.590;2022-09-09T15:03:58;716.90;2252.80
55016;DHT22;40919;43.236;21.590;2022-09-09T15:06:25;692.10;2252.80
55016;DHT22;40919;43.236;21.590;2022-09-09T15:08:53;692.10;2252.80
55016;DHT22;40919;43.236;21.590;2022-09-09T15:11:20;691.80;2278.40
55016;DHT22;40919;43.236;21.590;2022-09-09T15:13:46;691.70;2304.00
55016;DHT22;40919;43.236;21.590;2022-09-09T15:16:13;691.60;2355.20
55016;DHT22;40919;43.236;21.590;2022-09-09T15:18:40;691.50;2355.20
55016;DHT22;40919;43.236;21.590;2022-09-09T15:21:16;691.50;2380.80
55016;DHT22;40919;43.236;21.590;2022-09-09T15:23:42;691.30;2380.80
55016;DHT22;40919;43.236;21.590;2022-09-09T15:26:09;691.30;2406.40
55016;DHT22;40919;43.236;21.590;2022-09-09T15:28:36;691.30;2380.80
55016;DHT22;40919;43.236;21.590;2022-09-09T15:31:13;691.20;2380.80
55016;DHT22;40919;43.236;21.590;2022-09-09T15:33:59;691.20;2380.80
55016;DHT22;40919;43.236;21.590;2022-09-09T15:38:59;691.20;2432.00
55016;DHT22;40919;43.236;21.590;2022-09-09T15:41:26;666.50;2432.00
55016;DHT22;40919;43.236;21.590;2022-09-09T15:43:54;691.20;2432.00
55016;DHT22;40919;43.236;21.590;2022-09-09T15:46:37;666.50;2432.00
55016;DHT22;40919;43.236;21.590;2022-09-09T15:49:07;666.30;2432.00
55016;DHT22;40919;43.236;21.590;2022-09-09T15:51:35;666.30;2432.00
55016;DHT22;40919;43.236;21.590;2022-09-09T15:54:01;666.20;2432.00
55016;DHT22;40919;43.236;21.590;2022-09-09T15:56:28;666.20;2432.00
55016;DHT22;40919;43.236;21.590;2022-09-09T15:58:56;666.20;2432.00
55016;DHT22;40919;43.236;21.590;2022-09-09T16:01:23;666.00;2432.00
55016;DHT22;40919;43.236;21.590;2022-09-09T16:03:49;665.90;2432.00
55016;DHT22;40919;43.236;21.590;2022-09-09T16:06:18;665.80;2432.00
55016;DHT22;40919;43.236;21.590;2022-09-09T16:08:45;665.80;2432.00
55016;DHT22;40919;43.236;21.590;2022-09-09T16:11:14;665.80;2432.00
55016;DHT22;40919;43.236;21.590;2022-09-09T16:13:42;665.70;2432.00
55016;DHT22;40919;43.236;21.590;2022-09-09T16:16:13;665.60;2432.00
55016;DHT22;40919;43.236;21.590;2022-09-09T16:18:47;640.90;2432.00
55016;DHT22;40919;43.236;21.590;2022-09-09T16:21:19;665.60;2432.00
55016;DHT22;40919;43.236;21.590;2022-09-09T16:23:45;665.60;2432.00
55016;DHT22;40919;43.236;21.590;2022-09-09T16:26:13;665.60;2432.00
55016;DHT22;40919;43.236;21.590;2022-09-09T16:28:39;640.80;2432.00
55016;DHT22;40919;43.236;21.590;2022-09-09T16:31:07;640.80;2432.00
55016;DHT22;40919;43.236;21.590;2022-09-09T16:33:32;640.60;2432.00
55016;DHT22;40919;43.236;21.590;2022-09-09T16:36:08;640.60;2432.00
55016;DHT22;40919;43.236;21.590;2022-09-09T16:38:34;640.50;2432.00
55016;DHT22;40919;43.236;21.590;2022-09-09T16:41:01;640.50;2432.00
55016;DHT22;40919;43.236;21.590;2022-09-09T16:43:27;666.00;2432.00
55016;DHT22;40919;43.236;21.590;2022-09-09T16:45:53;640.40;2432.00
55016;DHT22;40919;43.236;21.590;2022-09-09T16:48:19;640.40;2432.00
55016;DHT22;40919;43.236;21.590;2022-09-09T16:50:45;640.40;2432.00
55016;DHT22;40919;43.236;21.590;2022-09-09T16:53:12;640.20;2432.00
55016;DHT22;40919;43.236;21.590;2022-09-09T16:55:39;640.20;2432.00
55016;DHT22;40919;43.236;21.590;2022-09-09T16:58:07;640.30;2432.00